Time;durP1;ratioP1;P1;durP2;ratioP2;P2;SDS_P1;SDS_P2;PMS_P1;PMS_P2;Temp;Humidity;BMP_temperature;BMP_pressure;BME280_temperature;BME280_humidity;BME280_pressure;Samples;Min_cycle;Max_cycle;Signal;HPM_P1;HPM_P2
2022/12/17 13:06:42;;;;;;;151.75;53.55;;;0.80;99.90;;;;;;5033990;28;20136;-85
2022/12/17 13:09:14;;;;;;;155.00;50.05;;;0.70;99.90;;;;;;5034123;28;20049;-84
2022/12/17 13:11:48;;;;;;;147.63;48.97;;;0.70;99.90;;;;;;5033974;28;20045;-84
2022/12/17 13:14:30;;;;;;;158.82;52.90;;;0.70;99.90;;;;;;5033900;28;20045;-84
2022/12/17 13:17:05;;;;;;;149.77;47.40;;;0.70;99.90;;;;;;5033603;28;20049;-83
2022/12/17 13:19:30;;;;;;;156.40;50.97;;;0.80;99.90;;;;;;5033658;28;20037;-83
2022/12/17 13:22:16;;;;;;;113.47;40.72;;;0.70;99.90;;;;;;5033693;28;20053;-81
2022/12/17 13:24:44;;;;;;;153.52;52.33;;;0.70;99.90;;;;;;5023028;28;20059;-82
2022/12/17 13:27:41;;;;;;;149.68;50.03;;;0.80;99.90;;;;;;5033585;28;20566;-83
2022/12/17 13:30:42;;;;;;;143.20;47.67;;;0.80;99.90;;;;;;5032878;28;20053;-83
2022/12/17 13:33:31;;;;;;;149.23;48.67;;;0.80;99.90;;;;;;4977099;28;20501;-84
2022/12/17 13:36:18;;;;;;;145.23;47.33;;;0.80;99.90;;;;;;5030341;28;20140;-84
2022/12/17 13:38:55;;;;;;;149.98;52.95;;;0.80;99.90;;;;;;5033218;28;20408;-83
2022/12/17 13:41:28;;;;;;;146.10;48.70;;;0.80;99.90;;;;;;5033209;28;20048;-83
2022/12/17 13:44:20;;;;;;;149.10;50.65;;;0.70;99.90;;;;;;5033339;28;20103;-83
2022/12/17 13:46:48;;;;;;;147.88;50.65;;;0.80;99.90;;;;;;5033142;28;20084;-83
2022/12/17 13:49:28;;;;;;;157.45;55.10;;;0.70;99.90;;;;;;5032958;28;20468;-84
2022/12/17 13:52:01;;;;;;;149.70;52.88;;;0.70;99.90;;;;;;5033076;28;20073;-83
2022/12/17 13:54:27;;;;;;;129.07;47.45;;;0.70;99.90;;;;;;5032729;28;20047;-78
2022/12/17 13:56:53;;;;;;;143.23;48.15;;;0.70;99.90;;;;;;5033182;28;20045;-82
2022/12/17 13:59:22;;;;;;;149.73;48.92;;;0.70;99.90;;;;;;5032736;28;20121;-81
2022/12/17 14:01:51;;;;;;;140.20;46.53;;;0.60;99.90;;;;;;5033022;28;20080;-84
2022/12/17 14:04:26;;;;;;;142.35;45.55;;;0.70;99.90;;;;;;5033962;28;20564;-81
2022/12/17 14:06:55;;;;;;;136.95;47.95;;;0.60;99.90;;;;;;5032658;28;20088;-83
2022/12/17 14:09:28;;;;;;;148.23;50.97;;;0.70;99.90;;;;;;5033778;28;20740;-84
2022/12/17 14:14:43;;;;;;;143.90;43.80;;;0.60;99.90;;;;;;5032409;28;20406;-85
2022/12/17 14:17:20;;;;;;;131.48;44.35;;;0.50;99.90;;;;;;5032570;28;20481;-81
2022/12/17 14:19:51;;;;;;;142.27;49.42;;;0.50;99.90;;;;;;5032349;28;20485;-85
2022/12/17 14:22:31;;;;;;;152.13;50.03;;;0.50;99.90;;;;;;5032425;28;20049;-85
2022/12/17 14:24:57;;;;;;;142.98;48.22;;;0.40;99.90;;;;;;5032343;28;20481;-83
2022/12/17 14:27:30;;;;;;;146.93;49.97;;;0.50;99.90;;;;;;5032298;28;20095;-85
2022/12/17 14:29:55;;;;;;;155.50;50.00;;;0.40;99.90;;;;;;5032879;28;20103;-82
2022/12/17 14:32:30;;;;;;;149.43;50.47;;;0.40;99.90;;;;;;5032497;28;20485;-82
2022/12/17 14:34:55;;;;;;;143.63;49.20;;;0.40;99.90;;;;;;5033672;28;20044;-85
2022/12/17 14:37:24;;;;;;;142.40;49.08;;;0.40;99.90;;;;;;5032198;28;20041;-83
2022/12/17 14:39:51;;;;;;;146.68;51.22;;;0.30;99.90;;;;;;5032066;28;20038;-86
2022/12/17 14:42:31;;;;;;;153.65;49.47;;;0.20;99.90;;;;;;5031240;28;20077;-80
2022/12/17 14:45:05;;;;;;;152.25;49.25;;;0.30;99.90;;;;;;5032165;28;20103;-85
2022/12/17 14:47:36;;;;;;;150.27;50.92;;;0.20;99.90;;;;;;5032097;28;20064;-80
2022/12/17 14:50:04;;;;;;;157.35;53.53;;;0.20;99.90;;;;;;5031961;28;20442;-84
2022/12/17 14:52:42;;;;;;;142.65;47.08;;;0.10;99.90;;;;;;5032347;28;20057;-85
2022/12/17 14:55:35;;;;;;;155.10;52.95;;;0.10;99.90;;;;;;5032448;28;20049;-86
2022/12/17 14:58:12;;;;;;;141.07;46.67;;;0.00;99.90;;;;;;5032328;28;20111;-86
2022/12/17 15:00:39;;;;;;;137.57;45.25;;;0.00;99.90;;;;;;5032303;28;20048;-84
2022/12/17 15:03:08;;;;;;;141.80;48.38;;;-0.10;99.90;;;;;;5032103;28;20104;-85
2022/12/17 15:05:34;;;;;;;159.73;49.20;;;0.00;99.90;;;;;;5032005;28;20428;-86
2022/12/17 15:08:00;;;;;;;152.70;50.33;;;0.00;99.90;;;;;;5032360;28;20056;-86
2022/12/17 15:10:25;;;;;;;154.60;50.60;;;-0.10;99.90;;;;;;5031977;28;20103;-85
2022/12/17 15:12:52;;;;;;;147.05;49.22;;;-0.10;99.90;;;;;;5032346;28;20041;-85
2022/12/17 15:15:19;;;;;;;155.10;52.20;;;-0.20;99.90;;;;;;5031906;28;20412;-86
2022/12/17 15:17:45;;;;;;;164.30;53.58;;;-0.10;99.90;;;;;;5032204;28;20042;-86
2022/12/17 15:20:20;;;;;;;167.73;56.33;;;-0.10;99.90;;;;;;5031835;28;20107;-84
2022/12/17 15:22:46;;;;;;;163.75;56.00;;;-0.20;99.90;;;;;;5031908;28;20460;-85
2022/12/17 15:25:18;;;;;;;173.00;55.80;;;-0.30;99.90;;;;;;5031925;28;20378;-86
2022/12/17 15:27:45;;;;;;;155.23;49.42;;;-0.40;99.90;;;;;;5032246;28;20085;-85
2022/12/17 15:30:16;;;;;;;149.38;50.92;;;-0.30;99.90;;;;;;5032248;28;20049;-86
2022/12/17 15:32:41;;;;;;;165.35;51.38;;;-0.40;99.90;;;;;;5031694;28;20456;-85
2022/12/17 15:35:08;;;;;;;169.43;54.13;;;-0.40;99.90;;;;;;5033088;28;20535;-85
2022/12/17 15:37:34;;;;;;;169.52;57.22;;;-0.50;99.90;;;;;;5031967;28;20037;-85
2022/12/17 15:40:00;;;;;;;163.45;53.28;;;-0.50;99.90;;;;;;5031914;28;20095;-86
2022/12/17 15:45:10;;;;;;;171.70;57.05;;;-0.50;99.90;;;;;;5031701;28;20382;-86
2022/12/17 15:47:35;;;;;;;159.13;50.60;;;-0.50;99.90;;;;;;5031782;28;20543;-85
2022/12/17 15:50:02;;;;;;;161.63;52.50;;;-0.50;99.90;;;;;;5032082;28;20065;-85
2022/12/17 15:52:28;;;;;;;153.80;53.78;;;-0.60;99.90;;;;;;5032643;28;20053;-85
2022/12/17 15:54:53;;;;;;;161.50;52.90;;;-0.70;99.90;;;;;;5035495;28;20050;-84
2022/12/17 15:57:19;;;;;;;138.10;49.30;;;-0.60;99.90;;;;;;5035612;28;20049;-85
2022/12/17 15:59:45;;;;;;;175.00;61.65;;;-0.60;99.90;;;;;;5035533;28;20056;-83
2022/12/17 16:02:13;;;;;;;169.82;56.45;;;-0.60;99.90;;;;;;5035577;28;20045;-86
2022/12/17 16:04:39;;;;;;;156.40;50.83;;;-0.80;99.90;;;;;;5036693;28;20045;-86
2022/12/17 16:07:05;;;;;;;180.20;59.20;;;-0.80;99.90;;;;;;5035534;28;20053;-85
2022/12/17 16:09:31;;;;;;;163.18;54.10;;;-0.70;99.90;;;;;;5036597;28;20045;-86
2022/12/17 16:11:56;;;;;;;170.25;52.35;;;-0.90;99.90;;;;;;5035544;28;20041;-85
2022/12/17 16:14:22;;;;;;;154.23;50.88;;;-0.80;99.90;;;;;;5036412;28;20459;-85
2022/12/17 16:16:48;;;;;;;169.50;54.78;;;-0.80;99.90;;;;;;5035314;28;20136;-85
2022/12/17 16:19:14;;;;;;;168.98;53.97;;;-0.80;99.90;;;;;;5034900;28;20405;-85
2022/12/17 16:21:40;;;;;;;166.48;52.63;;;-0.80;99.90;;;;;;5035060;28;20041;-86
2022/12/17 16:24:13;;;;;;;153.55;46.83;;;-0.90;99.90;;;;;;5035037;28;20087;-85
2022/12/17 16:26:39;;;;;;;160.93;51.33;;;-0.80;99.90;;;;;;5036346;28;20072;-85
2022/12/17 16:29:05;;;;;;;157.77;52.53;;;-0.80;99.90;;;;;;5035115;28;20038;-85
2022/12/17 16:31:31;;;;;;;172.02;54.33;;;-1.00;99.90;;;;;;5034722;28;20136;-85
2022/12/17 16:33:57;;;;;;;138.25;45.30;;;-1.00;99.90;;;;;;5034982;28;20091;-85
2022/12/17 16:36:22;;;;;;;158.75;54.03;;;-1.00;99.90;;;;;;5034767;28;20497;-84
2022/12/17 16:38:50;;;;;;;147.32;46.22;;;-1.00;99.90;;;;;;5034789;28;20478;-83
2022/12/17 16:41:17;;;;;;;153.10;50.25;;;-1.00;99.90;;;;;;5036017;28;20060;-84
2022/12/17 16:43:43;;;;;;;179.25;50.78;;;-1.10;99.90;;;;;;5034792;28;20492;-84
2022/12/17 16:46:29;;;;;;;164.35;51.90;;;-1.10;99.90;;;;;;5034381;28;20057;-85
2022/12/17 16:48:56;;;;;;;159.02;50.88;;;-1.10;99.90;;;;;;5034590;28;20049;-85
2022/12/17 16:51:23;;;;;;;166.43;52.42;;;-1.00;99.90;;;;;;5034558;28;20058;-84
2022/12/17 16:53:49;;;;;;;166.07;52.67;;;-1.20;99.90;;;;;;5034359;28;20056;-85
2022/12/17 16:56:20;;;;;;;159.98;51.03;;;-1.20;99.90;;;;;;5034018;28;20037;-85
2022/12/17 16:58:46;;;;;;;181.65;55.25;;;-1.10;99.90;;;;;;5042417;28;20056;-85
2022/12/17 17:01:12;;;;;;;168.98;51.05;;;-1.10;99.90;;;;;;5042976;28;20041;-85
2022/12/17 17:03:41;;;;;;;176.10;53.33;;;-1.30;99.90;;;;;;5044507;28;20120;-85
2022/12/17 17:06:07;;;;;;;169.00;50.25;;;-1.30;99.90;;;;;;5043476;28;20047;-86
2022/12/17 17:08:37;;;;;;;165.43;51.58;;;-1.20;99.90;;;;;;5043662;28;20041;-84
2022/12/17 17:11:16;;;;;;;182.80;52.25;;;-1.20;99.90;;;;;;5042524;28;20095;-85
2022/12/17 17:13:42;;;;;;;147.85;47.90;;;-1.30;99.90;;;;;;5043696;28;20171;-84
2022/12/17 17:16:15;;;;;;;156.70;46.65;;;-1.20;99.90;;;;;;5042192;28;20501;-86
2022/12/17 17:18:40;;;;;;;162.23;47.80;;;-1.30;99.90;;;;;;5042344;28;20081;-85
2022/12/17 17:21:23;;;;;;;165.18;49.72;;;-1.20;99.90;;;;;;5042200;28;20412;-86
2022/12/17 17:23:52;;;;;;;182.35;58.67;;;-1.30;99.90;;;;;;5043397;28;20096;-85
2022/12/17 17:26:18;;;;;;;158.30;48.28;;;-1.30;99.90;;;;;;5041264;28;20378;-84
2022/12/17 17:28:44;;;;;;;155.10;44.28;;;-1.20;99.90;;;;;;5042240;28;20049;-83
2022/12/17 17:31:12;;;;;;;155.48;50.30;;;-1.30;99.90;;;;;;5043283;28;20044;-83
2022/12/17 17:33:42;;;;;;;142.20;43.40;;;-1.30;99.90;;;;;;5047525;28;20084;-85
2022/12/17 17:36:13;;;;;;;159.65;47.20;;;-1.30;99.90;;;;;;5053344;28;20049;-83
2022/12/17 17:38:39;;;;;;;154.20;44.47;;;-1.30;99.90;;;;;;5053544;28;20048;-83
2022/12/17 17:41:08;;;;;;;158.82;45.75;;;-1.30;99.90;;;;;;5053537;28;20443;-84
2022/12/17 17:43:33;;;;;;;144.13;42.47;;;-1.40;99.90;;;;;;5053436;28;20037;-82
2022/12/17 17:46:03;;;;;;;137.73;44.38;;;-1.40;99.90;;;;;;5053086;28;20139;-83
2022/12/17 17:48:32;;;;;;;144.35;43.92;;;-1.40;99.90;;;;;;5053240;28;20084;-83
2022/12/17 17:51:04;;;;;;;144.60;43.53;;;-1.30;99.90;;;;;;5053234;28;20532;-82
2022/12/17 17:53:30;;;;;;;149.13;44.22;;;-1.40;99.90;;;;;;5053155;28;20044;-84
2022/12/17 17:56:05;;;;;;;147.30;44.15;;;-1.50;99.90;;;;;;5053066;28;20037;-83
2022/12/17 17:58:32;;;;;;;169.23;49.67;;;-1.40;99.90;;;;;;5053260;28;20056;-79
2022/12/17 18:01:06;;;;;;;150.55;45.90;;;-1.50;99.90;;;;;;5053038;28;20052;-83
2022/12/17 18:03:32;;;;;;;151.57;45.22;;;-1.40;99.90;;;;;;5053102;28;20091;-79
2022/12/17 18:06:02;;;;;;;150.13;44.20;;;-1.50;99.90;;;;;;5053059;28;20052;-82
2022/12/17 18:08:29;;;;;;;155.77;42.78;;;-1.50;99.90;;;;;;5052839;28;20493;-82
2022/12/17 18:10:59;;;;;;;173.98;46.63;;;-1.30;99.90;;;;;;5054136;28;20395;-82
2022/12/17 18:16:10;;;;;;;142.20;43.70;;;-1.50;99.90;;;;;;5052635;28;20059;-83
2022/12/17 18:18:35;;;;;;;150.90;45.53;;;-1.60;99.90;;;;;;5052826;28;20041;-82
2022/12/17 18:21:10;;;;;;;143.10;46.88;;;-1.60;99.90;;;;;;5054037;28;20048;-83
2022/12/17 18:23:35;;;;;;;145.43;46.33;;;-1.60;99.90;;;;;;5052822;28;20037;-82
2022/12/17 18:26:08;;;;;;;153.38;40.33;;;-1.50;99.90;;;;;;5052546;28;20140;-82
2022/12/17 18:28:35;;;;;;;143.95;44.92;;;-1.50;99.90;;;;;;5052835;28;20060;-82
2022/12/17 18:31:06;;;;;;;146.57;46.85;;;-1.50;99.90;;;;;;5053869;28;20052;-82
2022/12/17 18:33:32;;;;;;;132.75;42.13;;;-1.60;99.90;;;;;;5052875;28;20075;-82
2022/12/17 18:35:58;;;;;;;139.00;41.38;;;-1.70;99.90;;;;;;5052571;28;20488;-82
2022/12/17 18:38:23;;;;;;;144.30;42.83;;;-1.70;99.90;;;;;;5052549;28;20051;-83
2022/12/17 18:40:49;;;;;;;154.90;47.80;;;-1.60;99.90;;;;;;5052413;28;20073;-82
2022/12/17 18:43:23;;;;;;;133.55;43.25;;;-1.70;99.90;;;;;;5052351;28;20123;-83
2022/12/17 18:45:51;;;;;;;157.07;43.72;;;-1.80;99.90;;;;;;5052362;28;20140;-82
2022/12/17 18:48:17;;;;;;;142.90;43.17;;;-1.60;99.90;;;;;;5052397;28;20055;-82
2022/12/17 18:50:43;;;;;;;151.73;44.72;;;-1.80;99.90;;;;;;5052462;28;20128;-83
2022/12/17 18:53:09;;;;;;;149.32;41.53;;;-1.70;99.90;;;;;;5052201;28;20127;-82
2022/12/17 18:55:39;;;;;;;146.93;44.22;;;-1.70;99.90;;;;;;5052142;28;20128;-83
2022/12/17 18:58:06;;;;;;;154.27;45.55;;;-1.80;99.90;;;;;;5052566;28;20052;-83
2022/12/17 19:00:32;;;;;;;162.23;46.03;;;-1.80;99.90;;;;;;5053571;28;20052;-82
2022/12/17 19:02:58;;;;;;;139.57;42.17;;;-1.80;99.90;;;;;;5053581;28;20389;-83
2022/12/17 19:05:24;;;;;;;149.27;44.53;;;-1.70;99.90;;;;;;5052078;28;20511;-82
2022/12/17 19:07:49;;;;;;;143.68;44.72;;;-1.60;99.90;;;;;;5053355;28;20489;-82
2022/12/17 19:10:15;;;;;;;132.32;38.38;;;-1.70;99.90;;;;;;5052453;28;20075;-82
2022/12/17 19:12:40;;;;;;;160.43;49.30;;;-1.60;99.90;;;;;;5052157;28;20122;-82
2022/12/17 19:15:07;;;;;;;149.50;42.78;;;-1.60;99.90;;;;;;5052239;28;20099;-82
2022/12/17 19:17:32;;;;;;;153.65;45.58;;;-1.60;99.90;;;;;;5052092;28;20056;-82
2022/12/17 19:20:00;;;;;;;157.02;46.22;;;-1.70;99.90;;;;;;5051447;28;20044;-82
2022/12/17 19:22:26;;;;;;;155.45;44.47;;;-1.70;99.90;;;;;;5053196;28;20191;-82
2022/12/17 19:24:52;;;;;;;158.23;43.92;;;-1.60;99.90;;;;;;5052408;28;20048;-82
2022/12/17 19:27:18;;;;;;;126.57;39.33;;;-1.60;99.90;;;;;;5052286;28;20049;-82
2022/12/17 19:29:43;;;;;;;135.80;40.50;;;-1.80;99.90;;;;;;5056018;28;20051;-82
2022/12/17 19:32:09;;;;;;;140.63;39.05;;;-1.70;99.90;;;;;;5055916;28;20041;-82
2022/12/17 19:34:35;;;;;;;151.35;42.28;;;-1.70;99.90;;;;;;5055907;28;20091;-83
2022/12/17 19:37:00;;;;;;;150.07;43.00;;;-1.80;99.90;;;;;;5056111;28;20397;-83
2022/12/17 19:39:26;;;;;;;153.10;43.80;;;-1.60;99.90;;;;;;5055748;28;20499;-83
2022/12/17 19:41:51;;;;;;;141.48;40.30;;;-1.70;99.90;;;;;;5055994;28;20053;-82
2022/12/17 19:44:19;;;;;;;143.52;41.97;;;-1.90;99.90;;;;;;5056843;28;20464;-82
2022/12/17 19:46:45;;;;;;;155.82;44.92;;;-1.90;99.90;;;;;;5055671;28;20049;-82
2022/12/17 19:49:12;;;;;;;137.63;41.88;;;-1.90;99.90;;;;;;5055448;28;20044;-82
2022/12/17 19:51:41;;;;;;;131.82;40.80;;;-1.80;99.90;;;;;;5055737;28;20057;-82
2022/12/17 19:54:07;;;;;;;149.95;42.58;;;-1.90;99.90;;;;;;5055790;28;20045;-81
2022/12/17 19:56:33;;;;;;;123.47;38.88;;;-2.10;99.90;;;;;;5055469;28;20385;-81
2022/12/17 19:59:02;;;;;;;156.75;46.25;;;-1.90;99.90;;;;;;5055463;28;20499;-81
2022/12/17 20:01:30;;;;;;;141.68;43.65;;;-2.00;99.90;;;;;;5055336;28;20412;-81
2022/12/17 20:03:57;;;;;;;140.25;42.03;;;-2.00;99.90;;;;;;5055445;28;20048;-81
2022/12/17 20:06:25;;;;;;;145.13;43.58;;;-2.00;99.90;;;;;;5055222;28;20485;-81
2022/12/17 20:08:51;;;;;;;130.40;40.40;;;-2.00;99.90;;;;;;5055545;28;20059;-81
2022/12/17 20:11:33;;;;;;;144.57;44.03;;;-2.00;99.90;;;;;;5055230;28;20114;-81
2022/12/17 20:14:03;;;;;;;156.63;43.80;;;-2.00;99.90;;;;;;5055090;28;20048;-80
2022/12/17 20:16:31;;;;;;;144.75;43.13;;;-2.10;99.90;;;;;;5054928;28;20508;-81
2022/12/17 20:19:00;;;;;;;145.35;39.45;;;-2.20;99.90;;;;;;5055019;28;20045;-80
2022/12/17 20:21:26;;;;;;;135.65;40.97;;;-2.20;99.90;;;;;;5055012;28;20053;-81
2022/12/17 20:23:52;;;;;;;136.25;42.22;;;-2.20;99.90;;;;;;5055014;28;20040;-81
2022/12/17 20:26:18;;;;;;;154.95;43.88;;;-2.20;99.90;;;;;;5054704;28;20052;-81
2022/12/17 20:28:44;;;;;;;147.25;41.38;;;-2.20;99.90;;;;;;5054762;28;20166;-80
2022/12/17 20:31:11;;;;;;;142.95;41.55;;;-2.20;99.90;;;;;;5056130;28;20048;-80
2022/12/17 20:33:37;;;;;;;139.90;39.75;;;-2.30;99.90;;;;;;5055004;28;20134;-81
2022/12/17 20:36:12;;;;;;;145.38;42.33;;;-2.40;99.90;;;;;;5054836;28;20500;-81
2022/12/17 20:38:38;;;;;;;128.65;39.90;;;-2.30;99.90;;;;;;5054351;28;20052;-81
2022/12/17 20:41:14;;;;;;;134.50;38.95;;;-2.40;99.90;;;;;;5054005;28;20124;-80
2022/12/17 20:43:40;;;;;;;123.85;36.65;;;-2.30;99.90;;;;;;5054520;28;20040;-81
2022/12/17 20:46:08;;;;;;;147.13;39.35;;;-2.50;99.90;;;;;;5054335;28;20061;-82
2022/12/17 20:48:34;;;;;;;149.05;42.90;;;-2.50;99.90;;;;;;5054839;28;20080;-81
2022/12/17 20:51:05;;;;;;;143.77;41.97;;;-2.50;99.90;;;;;;5054788;28;20041;-81
2022/12/17 20:53:31;;;;;;;147.13;40.38;;;-2.50;99.90;;;;;;5054549;28;20943;-80
2022/12/17 20:56:03;;;;;;;132.90;39.72;;;-2.50;99.90;;;;;;5054209;28;20048;-80
2022/12/17 20:58:29;;;;;;;135.83;39.27;;;-2.40;99.90;;;;;;5055516;28;20081;-80
2022/12/17 21:01:10;;;;;;;144.45;41.50;;;-2.40;99.90;;;;;;5054561;28;20079;-80
2022/12/17 21:03:36;;;;;;;144.00;39.28;;;-2.60;99.90;;;;;;5054438;28;20037;-80
2022/12/17 21:06:14;;;;;;;161.93;42.28;;;-2.60;99.90;;;;;;5054335;28;20130;-80
2022/12/17 21:08:47;;;;;;;159.57;43.95;;;-2.50;99.90;;;;;;5054321;28;20037;-80
2022/12/17 21:11:17;;;;;;;156.98;41.55;;;-2.60;99.90;;;;;;5054122;28;20048;-80
2022/12/17 21:13:43;;;;;;;133.65;38.60;;;-2.70;99.90;;;;;;5054263;28;20044;-80
2022/12/17 21:16:12;;;;;;;140.43;41.33;;;-2.60;99.90;;;;;;5053973;28;20084;-80
2022/12/17 21:18:41;;;;;;;119.38;36.65;;;-2.70;99.90;;;;;;5053719;28;20041;-80
2022/12/17 21:21:12;;;;;;;134.60;38.47;;;-2.70;99.90;;;;;;5054059;28;20052;-80
2022/12/17 21:23:39;;;;;;;135.77;40.15;;;-2.70;99.90;;;;;;5054013;28;20051;-79
2022/12/17 21:26:15;;;;;;;167.40;46.28;;;-2.60;99.90;;;;;;5053322;28;20045;-79
2022/12/17 21:28:44;;;;;;;138.18;37.90;;;-2.60;99.90;;;;;;5053916;28;20087;-79
2022/12/17 21:31:22;;;;;;;152.35;40.85;;;-2.80;99.90;;;;;;5053569;28;20049;-80
2022/12/17 21:33:50;;;;;;;143.10;40.58;;;-2.70;99.90;;;;;;5053589;28;20424;-80
2022/12/17 21:36:17;;;;;;;125.85;36.35;;;-2.60;99.90;;;;;;5053466;28;20439;-80
2022/12/17 21:38:43;;;;;;;109.32;32.50;;;-2.60;99.90;;;;;;5053864;28;20477;-80
2022/12/17 21:41:13;;;;;;;133.23;37.80;;;-2.70;99.90;;;;;;5053805;28;20047;-80
2022/12/17 21:43:39;;;;;;;120.05;36.17;;;-2.70;99.90;;;;;;5053765;28;20044;-80
2022/12/17 21:46:06;;;;;;;128.10;38.17;;;-2.60;99.90;;;;;;5053220;28;20052;-80
2022/12/17 21:48:32;;;;;;;140.95;38.50;;;-2.60;99.90;;;;;;5053578;28;20075;-80
2022/12/17 21:50:58;;;;;;;136.38;37.00;;;-2.60;99.90;;;;;;5052883;28;20382;-80
2022/12/17 21:53:24;;;;;;;137.40;38.30;;;-2.80;99.90;;;;;;5053277;28;20044;-80
2022/12/17 21:55:52;;;;;;;150.50;42.00;;;-2.80;99.90;;;;;;5053025;28;20074;-80
2022/12/17 21:58:20;;;;;;;143.20;41.92;;;-2.70;99.90;;;;;;5053342;28;20075;-79
2022/12/17 22:00:46;;;;;;;160.32;44.75;;;-2.70;99.90;;;;;;5052997;28;20404;-79
2022/12/17 22:03:11;;;;;;;158.45;44.90;;;-2.70;99.90;;;;;;5053069;28;20481;-80
2022/12/17 22:05:37;;;;;;;141.57;39.78;;;-2.90;99.90;;;;;;5053302;28;20123;-79
2022/12/17 22:08:04;;;;;;;155.02;44.17;;;-2.80;99.90;;;;;;5053322;28;20492;-79
2022/12/17 22:10:30;;;;;;;141.48;39.70;;;-2.90;99.90;;;;;;5053008;28;20041;-79
2022/12/17 22:15:42;;;;;;;147.52;42.33;;;-2.80;99.90;;;;;;5052880;28;20110;-79
2022/12/17 22:18:08;;;;;;;125.13;34.58;;;-2.80;99.90;;;;;;5054175;28;20080;-79
2022/12/17 22:20:33;;;;;;;140.55;40.53;;;-2.80;99.90;;;;;;5052719;28;20072;-79
2022/12/17 22:22:59;;;;;;;131.57;41.10;;;-2.80;99.90;;;;;;5053000;28;20044;-79
2022/12/17 22:25:25;;;;;;;131.70;40.28;;;-2.90;99.90;;;;;;5052610;28;20503;-78
2022/12/17 22:27:58;;;;;;;122.88;37.15;;;-2.90;99.90;;;;;;5053057;28;20475;-86
2022/12/17 22:33:08;;;;;;;133.65;39.30;;;-2.80;99.90;;;;;;5052522;28;20110;-79
2022/12/17 22:35:37;;;;;;;119.45;36.38;;;-2.80;99.90;;;;;;5052447;28;20099;-79
2022/12/17 22:38:05;;;;;;;113.22;33.60;;;-2.90;99.90;;;;;;5047885;28;20041;-79
2022/12/17 22:40:36;;;;;;;137.15;40.63;;;-2.80;99.90;;;;;;5041209;28;20394;-81
2022/12/17 22:45:49;;;;;;;159.68;46.05;;;-2.90;99.90;;;;;;5051982;28;20512;-80
2022/12/17 22:48:15;;;;;;;136.98;42.08;;;-3.00;99.90;;;;;;5052196;28;20119;-78
2022/12/17 22:50:43;;;;;;;120.80;36.83;;;-3.10;99.90;;;;;;5052133;28;20377;-79
2022/12/17 22:53:09;;;;;;;154.68;43.90;;;-2.90;99.90;;;;;;5052616;28;20119;-78
2022/12/17 22:55:35;;;;;;;148.60;42.58;;;-3.10;99.90;;;;;;5052256;28;20045;-78
2022/12/17 22:58:02;;;;;;;162.55;49.35;;;-3.10;99.90;;;;;;5052293;28;20151;-79
2022/12/17 23:00:32;;;;;;;135.65;38.45;;;-3.00;99.90;;;;;;5053499;28;20508;-78
2022/12/17 23:02:58;;;;;;;173.82;47.75;;;-2.90;99.90;;;;;;5052667;28;20044;-78
2022/12/17 23:05:26;;;;;;;147.38;44.63;;;-3.00;99.90;;;;;;5052445;28;20400;-79
2022/12/17 23:07:52;;;;;;;142.32;41.88;;;-3.00;99.90;;;;;;5052109;28;20044;-79
2022/12/17 23:10:18;;;;;;;143.32;41.45;;;-3.10;99.90;;;;;;5052153;28;20060;-79
2022/12/17 23:12:50;;;;;;;164.80;45.70;;;-3.10;99.90;;;;;;5052447;28;20048;-79
2022/12/17 23:15:31;;;;;;;154.45;43.65;;;-3.00;99.90;;;;;;5052161;28;20091;-77
2022/12/17 23:17:59;;;;;;;145.60;40.38;;;-2.90;99.90;;;;;;5052362;28;20405;-79
2022/12/17 23:20:27;;;;;;;139.82;41.60;;;-3.00;99.90;;;;;;5052265;28;20127;-78
2022/12/17 23:22:53;;;;;;;145.80;47.80;;;-3.00;99.90;;;;;;5052126;28;20045;-78
2022/12/17 23:25:19;;;;;;;139.15;40.35;;;-3.00;99.90;;;;;;5052072;28;20048;-78
2022/12/17 23:27:46;;;;;;;154.35;40.97;;;-3.10;99.90;;;;;;5051806;28;20045;-79
2022/12/17 23:30:12;;;;;;;142.20;41.25;;;-3.10;99.90;;;;;;5051847;28;20134;-78
2022/12/17 23:32:39;;;;;;;138.95;38.60;;;-3.10;99.90;;;;;;5052173;28;20049;-78
2022/12/17 23:35:06;;;;;;;141.95;40.42;;;-3.00;99.90;;;;;;5052144;28;20041;-78
2022/12/17 23:37:31;;;;;;;162.38;44.95;;;-2.90;99.90;;;;;;5052201;28;20091;-78
2022/12/17 23:39:57;;;;;;;162.68;43.47;;;-3.10;99.90;;;;;;5051778;28;20049;-78
2022/12/17 23:42:22;;;;;;;144.23;42.63;;;-3.00;99.90;;;;;;5051758;28;20045;-78
2022/12/17 23:44:48;;;;;;;129.52;40.05;;;-3.00;99.90;;;;;;5051698;28;20049;-77
2022/12/17 23:47:14;;;;;;;151.40;42.50;;;-3.10;99.90;;;;;;5051713;28;20044;-78
2022/12/17 23:49:39;;;;;;;129.35;36.30;;;-3.10;99.90;;;;;;5053119;28;20064;-78
2022/12/17 23:52:05;;;;;;;129.73;39.63;;;-3.10;99.90;;;;;;5051828;28;20447;-78
2022/12/17 23:54:31;;;;;;;150.25;45.58;;;-3.00;99.90;;;;;;5051796;28;20057;-78
2022/12/17 23:56:56;;;;;;;133.98;40.53;;;-3.00;99.90;;;;;;5051434;28;20053;-78
2022/12/17 23:59:22;;;;;;;150.50;43.75;;;-2.90;99.90;;;;;;5051640;28;20045;-78
